createdAt,value
2019-03-19T00:00:33.702Z,6.13
2019-03-19T00:01:37.368Z,6.40
2019-03-19T00:02:40.998Z,6.73
2019-03-19T00:03:44.628Z,7.73
2019-03-19T00:04:48.259Z,7.73
2019-03-19T00:05:51.896Z,5.47
2019-03-19T00:06:55.567Z,6.70
2019-03-19T00:07:59.208Z,5.27
2019-03-19T00:09:03.131Z,7.80
2019-03-19T00:10:08.952Z,7.83
2019-03-19T00:11:12.599Z,7.53
2019-03-19T00:12:16.680Z,8.87
2019-03-19T00:13:20.380Z,10.03
2019-03-19T00:14:24.026Z,11.00
2019-03-19T00:15:27.654Z,9.03
2019-03-19T00:16:31.364Z,7.80
2019-03-19T00:17:34.960Z,7.17
2019-03-19T00:18:38.580Z,7.23
2019-03-19T00:19:42.208Z,4.93
2019-03-19T00:20:45.755Z,5.13
2019-03-19T00:21:49.394Z,5.53
2019-03-19T00:22:53.051Z,8.23
2019-03-19T00:23:56.614Z,6.13
2019-03-19T00:25:00.406Z,6.67
2019-03-19T00:26:04.123Z,8.70
2019-03-19T00:27:07.766Z,8.30
2019-03-19T00:28:11.431Z,9.63
2019-03-19T00:29:15.168Z,8.33
2019-03-19T00:30:19.272Z,9.60
2019-03-19T00:31:22.892Z,7.67
2019-03-19T00:32:26.456Z,7.00
2019-03-19T00:33:30.127Z,11.60
2019-03-19T00:34:33.752Z,5.57
2019-03-19T00:35:37.386Z,9.63
2019-03-19T00:36:41.014Z,8.47
2019-03-19T00:37:44.653Z,8.63
2019-03-19T00:38:48.248Z,7.00
2019-03-19T00:39:51.872Z,7.17
2019-03-19T00:40:55.511Z,9.13
2019-03-19T00:41:59.142Z,9.73
2019-03-19T00:43:02.776Z,7.97
2019-03-19T00:44:06.511Z,10.83
2019-03-19T00:45:12.145Z,7.23
2019-03-19T00:46:15.791Z,10.80
2019-03-19T00:47:19.522Z,10.20
2019-03-19T00:48:23.154Z,9.67
2019-03-19T00:49:26.747Z,9.70
2019-03-19T00:50:30.381Z,8.53
2019-03-19T00:51:34.059Z,8.23
2019-03-19T00:52:38.015Z,7.83
2019-03-19T00:53:41.648Z,8.30
2019-03-19T00:54:45.313Z,9.67
2019-03-19T00:55:48.967Z,8.40
2019-03-19T00:56:52.605Z,7.73
2019-03-19T00:57:56.230Z,9.70
2019-03-19T00:58:59.859Z,10.00
2019-03-19T01:00:04.976Z,9.67
2019-03-19T01:01:08.629Z,7.50
2019-03-19T01:02:12.267Z,9.13
2019-03-19T01:03:15.887Z,9.93
2019-03-19T01:04:19.512Z,9.43
2019-03-19T01:05:23.185Z,12.37
2019-03-19T01:06:26.822Z,7.57
2019-03-19T01:07:30.452Z,9.23
2019-03-19T01:08:34.568Z,7.50
2019-03-19T01:09:38.272Z,8.77
2019-03-19T01:10:41.852Z,8.73
2019-03-19T01:11:45.493Z,12.40
2019-03-19T01:12:49.147Z,11.97
2019-03-19T01:13:52.752Z,12.57
2019-03-19T01:14:56.359Z,7.67
2019-03-19T01:16:00.001Z,10.07
2019-03-19T01:17:03.743Z,11.67
2019-03-19T01:18:07.443Z,8.23
2019-03-19T01:19:11.069Z,10.90
2019-03-19T01:20:16.469Z,12.97
2019-03-19T01:21:20.136Z,13.33
2019-03-19T01:22:23.779Z,11.50
2019-03-19T01:23:27.345Z,12.77
2019-03-19T01:24:30.981Z,10.43
2019-03-19T01:25:35.177Z,10.47
2019-03-19T01:26:39.037Z,14.67
2019-03-19T01:27:42.672Z,10.80
2019-03-19T01:28:46.308Z,11.30
2019-03-19T01:29:49.955Z,9.90
2019-03-19T01:30:53.599Z,9.60
2019-03-19T01:31:57.274Z,10.37
2019-03-19T01:33:00.906Z,9.13
2019-03-19T01:34:04.540Z,10.53
2019-03-19T01:35:08.375Z,12.17
2019-03-19T01:36:12.008Z,9.67
2019-03-19T01:37:15.679Z,9.70
2019-03-19T01:38:19.314Z,10.17
2019-03-19T01:39:23.038Z,12.40
2019-03-19T01:40:26.745Z,13.07
2019-03-19T01:41:30.503Z,11.50
2019-03-19T01:42:34.170Z,10.17
2019-03-19T01:43:37.806Z,14.50
2019-03-19T01:44:41.513Z,10.23
2019-03-19T01:45:45.189Z,9.47
2019-03-19T01:46:48.820Z,7.57
2019-03-19T01:47:52.495Z,13.60
2019-03-19T01:48:56.153Z,11.63
2019-03-19T01:49:59.795Z,14.17
2019-03-19T01:51:03.432Z,11.00
2019-03-19T01:52:07.064Z,15.67
2019-03-19T01:53:10.733Z,11.83
2019-03-19T01:54:14.368Z,10.80
2019-03-19T01:55:18.001Z,11.47
2019-03-19T01:56:21.630Z,9.97
2019-03-19T01:57:25.282Z,11.07
2019-03-19T01:58:28.890Z,11.73
2019-03-19T01:59:32.521Z,8.43
2019-03-19T02:00:36.146Z,9.00
2019-03-19T02:01:39.788Z,10.07
2019-03-19T02:02:43.360Z,10.90
2019-03-19T02:03:47.027Z,8.57
2019-03-19T02:04:50.657Z,9.27
2019-03-19T02:05:54.296Z,12.57
2019-03-19T02:06:58.010Z,10.00
2019-03-19T02:08:01.567Z,11.20
2019-03-19T02:09:08.276Z,10.67
2019-03-19T02:10:13.311Z,8.83
2019-03-19T02:11:18.512Z,12.67
2019-03-19T02:12:22.082Z,12.23
2019-03-19T02:13:25.714Z,10.10
2019-03-19T02:14:29.797Z,9.67
2019-03-19T02:15:33.428Z,9.70
2019-03-19T02:16:37.118Z,7.33
2019-03-19T02:17:40.933Z,9.47
2019-03-19T02:18:44.612Z,7.97
2019-03-19T02:19:48.293Z,8.17
2019-03-19T02:20:51.926Z,7.57
2019-03-19T02:21:55.571Z,11.63
2019-03-19T02:22:59.591Z,9.27
2019-03-19T02:24:03.243Z,7.17
2019-03-19T02:25:09.234Z,7.30
2019-03-19T02:26:16.808Z,7.70
2019-03-19T02:27:18.227Z,9.23
2019-03-19T02:28:21.784Z,8.13
2019-03-19T02:29:25.343Z,7.37
2019-03-19T02:30:28.999Z,9.13
2019-03-19T02:31:32.621Z,10.17
2019-03-19T02:32:36.258Z,9.30
2019-03-19T02:33:39.888Z,7.93
2019-03-19T02:34:43.559Z,8.13
2019-03-19T02:35:47.431Z,9.70
2019-03-19T02:36:51.070Z,9.43
2019-03-19T02:37:54.740Z,7.57
2019-03-19T02:38:58.375Z,7.50
2019-03-19T02:40:02.034Z,8.03
2019-03-19T02:41:05.664Z,8.93
2019-03-19T02:42:09.310Z,14.87
2019-03-19T02:43:12.939Z,9.60
2019-03-19T02:44:16.658Z,9.03
2019-03-19T02:45:20.284Z,9.03
2019-03-19T02:46:24.340Z,9.53
2019-03-19T02:47:27.977Z,12.57
2019-03-19T02:48:31.611Z,9.60
2019-03-19T02:49:35.254Z,8.83
2019-03-19T02:50:38.990Z,9.23
2019-03-19T02:51:42.626Z,13.43
2019-03-19T02:52:46.505Z,12.87
2019-03-19T02:53:50.178Z,9.93
2019-03-19T02:54:53.814Z,12.93
2019-03-19T02:55:57.438Z,11.63
2019-03-19T02:57:01.104Z,11.27
2019-03-19T02:58:05.010Z,12.00
2019-03-19T02:59:08.746Z,16.30
2019-03-19T03:00:19.627Z,13.37
2019-03-19T03:01:23.217Z,13.27
2019-03-19T03:02:26.857Z,14.67
2019-03-19T03:03:30.481Z,12.27
2019-03-19T03:04:34.117Z,12.07
2019-03-19T03:05:37.751Z,12.77
2019-03-19T03:06:41.382Z,12.67
2019-03-19T03:07:45.863Z,14.33
2019-03-19T03:08:49.480Z,11.87
2019-03-19T03:09:53.113Z,11.17
2019-03-19T03:10:56.819Z,13.80
2019-03-19T03:12:00.452Z,9.43
2019-03-19T03:13:04.454Z,11.30
2019-03-19T03:14:08.157Z,10.93
2019-03-19T03:15:15.962Z,19.43
2019-03-19T03:16:19.586Z,13.20
2019-03-19T03:17:23.224Z,12.03
2019-03-19T03:18:27.224Z,14.70
2019-03-19T03:19:30.855Z,23.30
2019-03-19T03:20:34.501Z,20.13
2019-03-19T03:21:38.071Z,17.23
2019-03-19T03:22:41.686Z,17.57
2019-03-19T03:23:45.719Z,18.07
2019-03-19T03:24:49.346Z,15.87
2019-03-19T03:25:52.980Z,18.30
2019-03-19T03:26:56.621Z,11.73
2019-03-19T03:28:00.258Z,19.43
2019-03-19T03:29:03.933Z,11.37
2019-03-19T03:30:13.220Z,13.60
2019-03-19T03:31:16.915Z,13.07
2019-03-19T03:32:20.542Z,10.57
2019-03-19T03:33:24.285Z,12.47
2019-03-19T03:34:27.934Z,11.90
2019-03-19T03:35:31.568Z,10.40
2019-03-19T03:36:35.191Z,16.57
2019-03-19T03:37:38.826Z,12.93
2019-03-19T03:38:42.469Z,13.63
2019-03-19T03:39:46.129Z,18.33
2019-03-19T03:40:49.925Z,15.40
2019-03-19T03:41:53.553Z,17.30
2019-03-19T03:42:57.262Z,15.67
2019-03-19T03:44:01.364Z,16.10
2019-03-19T03:45:07.962Z,14.77
2019-03-19T03:46:11.597Z,14.90
2019-03-19T03:47:15.240Z,20.73
2019-03-19T03:48:18.881Z,16.47
2019-03-19T03:49:22.516Z,18.17
2019-03-19T03:50:26.171Z,23.50
2019-03-19T03:51:29.806Z,30.30
2019-03-19T03:52:33.440Z,23.23
2019-03-19T03:53:37.078Z,24.60
2019-03-19T03:54:40.700Z,18.17
2019-03-19T03:55:44.365Z,13.70
2019-03-19T03:57:01.399Z,14.87
2019-03-19T03:57:53.356Z,11.53
2019-03-19T03:59:01.101Z,11.47
2019-03-19T04:00:02.433Z,9.60
2019-03-19T04:01:06.102Z,12.30
2019-03-19T04:02:09.744Z,10.17
2019-03-19T04:03:13.370Z,7.57
2019-03-19T04:04:16.997Z,10.77
2019-03-19T04:05:20.618Z,10.93
2019-03-19T04:06:24.303Z,13.70
2019-03-19T04:07:27.923Z,14.40
2019-03-19T04:08:31.472Z,9.27
2019-03-19T04:09:35.220Z,10.37
2019-03-19T04:10:39.137Z,8.33
2019-03-19T04:11:42.794Z,13.50
2019-03-19T04:12:46.643Z,14.30
2019-03-19T04:13:50.268Z,13.43
2019-03-19T04:14:53.899Z,14.07
2019-03-19T04:15:57.535Z,11.77
2019-03-19T04:17:01.199Z,11.53
2019-03-19T04:18:05.413Z,11.30
2019-03-19T04:19:09.192Z,13.27
2019-03-19T04:20:14.111Z,12.90
2019-03-19T04:21:17.805Z,10.60
2019-03-19T04:22:21.477Z,14.00
2019-03-19T04:23:25.118Z,14.30
2019-03-19T04:24:29.049Z,19.77
2019-03-19T04:25:32.679Z,22.47
2019-03-19T04:26:36.308Z,23.20
2019-03-19T04:27:40.869Z,17.33
2019-03-19T04:28:44.785Z,14.80
2019-03-19T04:29:48.422Z,17.27
2019-03-19T04:30:52.051Z,16.53
2019-03-19T04:31:55.669Z,15.73
2019-03-19T04:32:59.354Z,16.37
2019-03-19T04:34:03.001Z,16.63
2019-03-19T04:35:07.433Z,15.70
2019-03-19T04:36:11.060Z,19.07
2019-03-19T04:37:15.536Z,17.33
2019-03-19T04:38:19.495Z,13.57
2019-03-19T04:39:23.465Z,20.90
2019-03-19T04:40:27.112Z,18.50
2019-03-19T04:41:30.744Z,20.17
2019-03-19T04:42:34.453Z,21.63
2019-03-19T04:43:38.080Z,19.90
2019-03-19T04:44:41.796Z,16.57
2019-03-19T04:45:45.463Z,19.03
2019-03-19T04:46:49.096Z,17.27
2019-03-19T04:47:52.772Z,21.07
2019-03-19T04:48:56.523Z,18.87
2019-03-19T04:50:00.498Z,20.87
2019-03-19T04:51:04.233Z,22.53
2019-03-19T04:52:07.928Z,25.60
2019-03-19T04:53:11.667Z,20.90
2019-03-19T04:54:15.292Z,22.03
2019-03-19T04:55:18.927Z,20.83
2019-03-19T04:56:22.566Z,20.03
2019-03-19T04:57:27.281Z,25.40
2019-03-19T04:58:32.402Z,17.83
2019-03-19T04:59:36.741Z,20.13
2019-03-19T05:00:40.385Z,18.27
2019-03-19T05:01:44.013Z,20.93
2019-03-19T05:02:47.664Z,17.97
2019-03-19T05:03:51.306Z,15.30
2019-03-19T05:04:55.012Z,15.60
2019-03-19T05:05:59.632Z,20.17
2019-03-19T05:07:03.737Z,19.23
2019-03-19T05:08:07.357Z,18.93
2019-03-19T05:09:13.048Z,16.23
2019-03-19T05:10:18.625Z,19.70
2019-03-19T05:11:22.260Z,15.70
2019-03-19T05:12:27.446Z,23.47
2019-03-19T05:13:32.547Z,18.77
2019-03-19T05:14:36.137Z,18.40
2019-03-19T05:15:39.828Z,18.80
2019-03-19T05:16:43.886Z,17.27
2019-03-19T05:17:47.514Z,22.43
2019-03-19T05:18:51.151Z,19.87
2019-03-19T05:19:54.868Z,19.27
2019-03-19T05:20:58.887Z,20.87
2019-03-19T05:22:02.528Z,18.70
2019-03-19T05:23:06.276Z,18.53
2019-03-19T05:24:09.910Z,13.80
2019-03-19T05:25:13.603Z,22.27
2019-03-19T05:26:17.393Z,21.00
2019-03-19T05:27:21.024Z,24.77
2019-03-19T05:28:24.681Z,24.70
2019-03-19T05:29:28.311Z,26.37
2019-03-19T05:30:32.075Z,18.60
2019-03-19T05:31:35.705Z,22.13
2019-03-19T05:32:39.342Z,23.40
2019-03-19T05:33:43.055Z,22.73
2019-03-19T05:34:46.757Z,20.57
2019-03-19T05:35:50.419Z,17.90
2019-03-19T05:36:53.980Z,16.67
2019-03-19T05:37:57.542Z,19.40
2019-03-19T05:39:01.319Z,17.87
2019-03-19T05:40:08.048Z,28.57
2019-03-19T05:41:12.009Z,15.73
2019-03-19T05:42:15.644Z,16.57
2019-03-19T05:43:19.279Z,20.73
2019-03-19T05:44:22.912Z,18.67
2019-03-19T05:45:26.549Z,19.30
2019-03-19T05:46:30.209Z,22.47
2019-03-19T05:47:37.490Z,21.63
2019-03-19T05:48:39.603Z,18.67
2019-03-19T05:49:43.233Z,20.60
2019-03-19T05:50:46.930Z,19.03
2019-03-19T05:51:50.672Z,20.37
2019-03-19T05:52:54.313Z,18.50
2019-03-19T05:53:57.882Z,16.93
2019-03-19T05:55:01.615Z,22.43
2019-03-19T05:56:05.255Z,22.53
2019-03-19T05:57:08.918Z,19.00
2019-03-19T05:58:12.642Z,23.70
2019-03-19T05:59:16.196Z,21.07
2019-03-19T06:00:22.004Z,22.07
2019-03-19T06:01:25.963Z,17.10
2019-03-19T06:02:29.628Z,19.17
2019-03-19T06:03:33.557Z,19.47
2019-03-19T06:04:37.193Z,19.67
2019-03-19T06:05:40.897Z,21.07
2019-03-19T06:06:44.613Z,28.43
2019-03-19T06:07:48.300Z,23.10
2019-03-19T06:08:51.920Z,20.77
2019-03-19T06:09:55.553Z,21.70
2019-03-19T06:10:59.189Z,23.10
2019-03-19T06:12:02.826Z,28.40
2019-03-19T06:13:06.501Z,28.20
2019-03-19T06:14:10.137Z,32.43
2019-03-19T06:15:14.673Z,35.63
2019-03-19T06:16:18.308Z,31.53
2019-03-19T06:17:21.870Z,30.63
2019-03-19T06:18:34.592Z,22.70
2019-03-19T06:19:30.809Z,23.67
2019-03-19T06:20:34.527Z,28.33
2019-03-19T06:21:38.159Z,28.87
2019-03-19T06:22:41.812Z,27.93
2019-03-19T06:23:45.471Z,28.33
2019-03-19T06:24:49.679Z,35.07
2019-03-19T06:25:53.319Z,24.77
2019-03-19T06:26:56.943Z,30.00
2019-03-19T06:28:01.073Z,30.97
2019-03-19T06:29:05.017Z,28.17
2019-03-19T06:30:22.312Z,35.50
2019-03-19T06:31:25.956Z,30.13
2019-03-19T06:32:29.594Z,43.50
2019-03-19T06:33:33.217Z,34.07
2019-03-19T06:34:36.881Z,32.40
2019-03-19T06:35:40.519Z,23.23
2019-03-19T06:36:44.154Z,24.53
2019-03-19T06:37:47.809Z,25.47
2019-03-19T06:38:51.453Z,23.83
2019-03-19T06:39:55.104Z,21.70
2019-03-19T06:40:58.738Z,18.33
2019-03-19T06:42:02.461Z,19.13
2019-03-19T06:43:06.100Z,23.23
2019-03-19T06:44:09.732Z,19.23
2019-03-19T06:45:21.781Z,19.23
2019-03-19T06:46:25.416Z,23.67
2019-03-19T06:47:29.052Z,18.70
2019-03-19T06:48:32.688Z,20.47
2019-03-19T06:49:36.627Z,21.27
2019-03-19T06:50:45.061Z,23.73
2019-03-19T06:51:45.659Z,22.40
2019-03-19T06:52:49.308Z,21.70
2019-03-19T06:53:52.945Z,21.17
2019-03-19T06:54:56.575Z,24.40
2019-03-19T06:56:00.262Z,22.57
2019-03-19T06:57:04.224Z,21.30
2019-03-19T06:58:11.330Z,23.73
2019-03-19T06:59:13.558Z,23.10
2019-03-19T07:00:24.130Z,23.30
2019-03-19T07:01:27.795Z,26.33
2019-03-19T07:02:31.436Z,24.50
2019-03-19T07:03:35.010Z,26.50
2019-03-19T07:04:38.641Z,21.37
2019-03-19T07:05:42.363Z,24.67
2019-03-19T07:06:45.964Z,22.63
2019-03-19T07:07:49.610Z,25.43
2019-03-19T07:08:53.310Z,26.50
2019-03-19T07:09:56.992Z,30.23
2019-03-19T07:11:00.582Z,26.00
2019-03-19T07:12:04.258Z,24.80
2019-03-19T07:13:07.896Z,21.83
2019-03-19T07:14:11.607Z,21.90
2019-03-19T07:15:18.987Z,21.13
2019-03-19T07:16:22.645Z,19.17
2019-03-19T07:17:26.317Z,27.87
2019-03-19T07:18:29.944Z,25.83
2019-03-19T07:19:33.656Z,22.77
2019-03-19T07:20:37.295Z,21.07
2019-03-19T07:21:40.944Z,25.73
2019-03-19T07:22:44.679Z,21.20
2019-03-19T07:23:59.239Z,26.13
2019-03-19T07:25:03.218Z,22.40
2019-03-19T07:26:07.188Z,22.03
2019-03-19T07:27:10.821Z,21.83
2019-03-19T07:28:22.055Z,21.53
2019-03-19T07:29:19.860Z,20.53
2019-03-19T07:30:25.575Z,28.67
2019-03-19T07:31:31.087Z,21.97
2019-03-19T07:32:34.588Z,19.37
2019-03-19T07:33:56.508Z,20.93
2019-03-19T07:35:05.156Z,25.10
2019-03-19T07:36:30.163Z,24.20
2019-03-19T07:37:34.194Z,21.20
2019-03-19T07:38:37.836Z,20.33
2019-03-19T07:39:41.508Z,22.60
2019-03-19T07:40:45.254Z,24.43
2019-03-19T07:41:48.891Z,19.67
2019-03-19T07:42:52.532Z,21.40
2019-03-19T07:43:56.194Z,21.27
2019-03-19T07:44:59.900Z,21.57
2019-03-19T07:46:03.542Z,23.87
2019-03-19T07:47:07.187Z,20.93
2019-03-19T07:48:10.836Z,21.70
2019-03-19T07:49:14.459Z,23.37
2019-03-19T07:50:19.337Z,17.37
2019-03-19T07:51:22.972Z,19.97
2019-03-19T07:52:26.603Z,17.57
2019-03-19T07:53:30.254Z,21.30
2019-03-19T07:54:33.905Z,24.23
2019-03-19T07:55:37.596Z,19.77
2019-03-19T07:56:41.175Z,16.20
2019-03-19T07:57:44.814Z,18.20
2019-03-19T07:58:48.511Z,21.13
2019-03-19T07:59:52.152Z,24.73
2019-03-19T08:00:55.817Z,20.27
2019-03-19T08:01:59.758Z,21.10
2019-03-19T08:03:03.330Z,17.77
2019-03-19T08:04:06.962Z,19.43
2019-03-19T08:05:11.300Z,18.10
2019-03-19T08:06:14.969Z,23.13
2019-03-19T08:07:18.942Z,16.20
2019-03-19T08:08:22.652Z,17.50
2019-03-19T08:09:26.396Z,17.83
2019-03-19T08:10:30.013Z,19.13
2019-03-19T08:11:33.685Z,19.90
2019-03-19T08:12:37.317Z,19.37
2019-03-19T08:13:40.960Z,22.07
2019-03-19T08:14:44.523Z,21.07
2019-03-19T08:15:48.154Z,20.33
2019-03-19T08:16:53.298Z,19.37
2019-03-19T08:17:57.036Z,17.63
2019-03-19T08:19:00.677Z,16.40
2019-03-19T08:20:06.715Z,22.17
2019-03-19T08:21:10.383Z,20.67
2019-03-19T08:22:14.058Z,15.60
2019-03-19T08:23:17.693Z,15.40
2019-03-19T08:24:22.550Z,14.33
2019-03-19T08:25:26.188Z,21.70
2019-03-19T08:26:29.823Z,16.70
2019-03-19T08:27:33.483Z,15.77
2019-03-19T08:28:37.161Z,17.53
2019-03-19T08:29:40.754Z,17.23
2019-03-19T08:30:44.398Z,15.97
2019-03-19T08:31:48.641Z,19.87
2019-03-19T08:32:52.315Z,13.13
2019-03-19T08:34:00.240Z,18.87
2019-03-19T08:35:04.156Z,17.10
2019-03-19T08:36:09.498Z,16.83
2019-03-19T08:40:24.679Z,17.13
2019-03-19T08:42:58.097Z,14.57
2019-03-19T08:44:01.137Z,16.27
2019-03-19T08:45:09.107Z,17.53
2019-03-19T08:49:14.397Z,13.60
2019-03-19T08:50:21.253Z,14.30
2019-03-19T08:51:24.845Z,17.53
2019-03-19T08:52:28.492Z,13.90
2019-03-19T08:53:33.702Z,16.90
2019-03-19T08:54:37.329Z,12.27
2019-03-19T08:55:42.183Z,12.03
2019-03-19T08:56:45.833Z,10.77
2019-03-19T08:57:50.536Z,11.80
2019-03-19T08:58:54.102Z,12.83
2019-03-19T08:59:57.832Z,13.33
2019-03-19T09:01:01.507Z,11.70
2019-03-19T09:02:05.268Z,11.47
2019-03-19T09:03:09.751Z,11.37
2019-03-19T09:04:14.854Z,14.13
2019-03-19T09:05:18.498Z,14.47
2019-03-19T09:06:22.168Z,13.30
2019-03-19T09:07:25.877Z,15.63
2019-03-19T09:08:30.758Z,13.30
2019-03-19T09:09:34.388Z,13.88
2019-03-19T09:10:37.836Z,18.55
2019-03-19T09:11:41.495Z,12.63
2019-03-19T09:12:45.234Z,13.93
2019-03-19T09:13:48.873Z,16.25
2019-03-19T09:14:52.500Z,14.13
2019-03-19T09:15:56.134Z,12.63
2019-03-19T09:16:59.809Z,20.05
2019-03-19T09:18:03.886Z,17.20
2019-03-19T09:19:07.522Z,16.23
2019-03-19T09:20:17.796Z,17.35
2019-03-19T09:21:21.428Z,16.62
2019-03-19T09:22:29.638Z,16.12
2019-03-19T09:23:30.464Z,16.40
2019-03-19T09:24:34.115Z,17.25
2019-03-19T09:25:37.751Z,17.80
2019-03-19T09:26:41.398Z,17.12
2019-03-19T09:27:45.071Z,22.05
2019-03-19T09:28:48.708Z,16.52
2019-03-19T09:29:52.437Z,18.00
2019-03-19T09:30:56.082Z,15.13
2019-03-19T09:31:59.650Z,15.45
2019-03-19T09:33:03.329Z,16.20
2019-03-19T09:34:07.337Z,17.92
2019-03-19T09:35:11.190Z,16.65
2019-03-19T09:36:14.896Z,18.40
2019-03-19T09:37:18.537Z,16.60
2019-03-19T09:38:22.515Z,15.65
2019-03-19T09:39:26.157Z,16.77
2019-03-19T09:40:29.811Z,17.70
2019-03-19T09:41:33.438Z,15.20
2019-03-19T09:42:37.079Z,17.55
2019-03-19T09:43:40.742Z,12.82
2019-03-19T09:44:44.710Z,13.62
2019-03-19T09:45:49.783Z,12.80
2019-03-19T09:46:53.420Z,13.13
2019-03-19T09:47:57.067Z,14.83
2019-03-19T09:49:00.804Z,15.45
2019-03-19T09:50:07.055Z,19.30
2019-03-19T09:51:10.720Z,13.55
2019-03-19T09:52:14.358Z,10.50
2019-03-19T09:53:18.856Z,11.28
2019-03-19T09:54:22.661Z,10.38
2019-03-19T09:55:26.309Z,10.58
2019-03-19T09:56:30.322Z,11.97
2019-03-19T09:57:34.036Z,13.95
2019-03-19T09:58:37.705Z,12.03
2019-03-19T09:59:44.346Z,13.00
2019-03-19T10:00:46.777Z,11.53
2019-03-19T10:01:52.164Z,11.12
2019-03-19T10:04:22.838Z,13.00
2019-03-19T10:05:26.511Z,9.93
2019-03-19T10:06:32.123Z,9.85
2019-03-19T10:07:36.222Z,10.32
2019-03-19T10:08:39.795Z,13.15
2019-03-19T10:09:46.098Z,10.18
2019-03-19T10:10:52.335Z,12.43
2019-03-19T10:11:59.593Z,11.68
2019-03-19T10:13:15.774Z,13.00
2019-03-19T10:14:20.763Z,11.05
2019-03-19T10:15:27.027Z,8.43
2019-03-19T10:16:30.692Z,8.85
2019-03-19T10:17:34.328Z,10.50
2019-03-19T10:18:43.630Z,10.03
2019-03-19T10:19:47.269Z,8.20
2019-03-19T10:20:55.873Z,10.80
2019-03-19T10:22:01.413Z,9.05
2019-03-19T10:24:36.372Z,9.23
2019-03-19T10:25:49.761Z,8.08
2019-03-19T10:27:12.545Z,8.13
2019-03-19T10:28:23.919Z,11.65
2019-03-19T10:29:37.565Z,8.45
2019-03-19T10:30:34.551Z,10.93
2019-03-19T10:31:38.197Z,11.78
2019-03-19T10:34:09.987Z,7.30
2019-03-19T10:35:14.096Z,7.65
2019-03-19T10:36:22.119Z,8.45
2019-03-19T10:37:27.391Z,8.45
2019-03-19T10:38:35.128Z,9.73
2019-03-19T10:39:38.998Z,10.18
2019-03-19T10:40:42.635Z,9.08
2019-03-19T10:41:46.274Z,8.38
2019-03-19T10:42:50.479Z,10.00
2019-03-19T10:44:36.412Z,7.80
2019-03-19T10:45:40.076Z,6.53
2019-03-19T10:46:43.714Z,9.05
2019-03-19T10:47:47.419Z,8.73
2019-03-19T10:48:51.047Z,9.53
2019-03-19T10:49:54.685Z,10.23
2019-03-19T10:50:58.372Z,8.00
2019-03-19T10:52:02.005Z,10.08
2019-03-19T10:53:05.643Z,7.40
2019-03-19T10:54:09.309Z,10.65
2019-03-19T10:55:13.040Z,10.05
2019-03-19T10:56:17.014Z,9.10
2019-03-19T10:57:20.638Z,7.75
2019-03-19T10:58:24.275Z,10.23
2019-03-19T10:59:27.902Z,8.43
2019-03-19T11:00:31.715Z,8.53
2019-03-19T11:01:37.021Z,11.33
2019-03-19T11:02:53.851Z,11.57
2019-03-19T11:03:58.726Z,10.50
2019-03-19T11:05:02.361Z,8.28
2019-03-19T11:06:05.994Z,8.30
2019-03-19T11:07:09.662Z,10.00
2019-03-19T11:08:13.297Z,7.95
2019-03-19T11:09:16.925Z,8.78
2019-03-19T11:10:21.232Z,8.10
2019-03-19T11:11:24.863Z,8.25
2019-03-19T11:12:30.043Z,7.50
2019-03-19T11:13:33.670Z,8.58
2019-03-19T11:14:37.303Z,7.35
2019-03-19T11:15:41.003Z,9.28
2019-03-19T11:16:44.634Z,8.83
2019-03-19T11:17:48.296Z,10.03
2019-03-19T11:18:51.927Z,5.92
2019-03-19T11:19:55.561Z,6.90
2019-03-19T11:20:59.224Z,9.00
2019-03-19T11:22:02.864Z,11.18
2019-03-19T11:23:06.524Z,7.40
2019-03-19T11:24:10.317Z,12.50
2019-03-19T11:25:16.803Z,8.23
2019-03-19T11:26:20.431Z,8.48
2019-03-19T11:27:24.068Z,5.65
2019-03-19T11:28:28.107Z,7.95
2019-03-19T11:29:31.675Z,12.15
2019-03-19T11:30:35.307Z,7.58
2019-03-19T11:31:38.935Z,6.53
2019-03-19T11:32:42.573Z,13.75
2019-03-19T11:33:47.684Z,9.60
2019-03-19T11:34:51.446Z,7.28
2019-03-19T11:35:55.145Z,6.47
2019-03-19T11:36:58.791Z,5.85
2019-03-19T11:38:02.436Z,7.80
2019-03-19T11:39:08.280Z,7.37
2019-03-19T11:40:18.914Z,6.53
2019-03-19T11:41:22.539Z,7.70
2019-03-19T11:42:26.179Z,6.75
2019-03-19T11:43:29.813Z,7.62
2019-03-19T11:44:33.476Z,7.50
2019-03-19T11:45:37.108Z,8.08
2019-03-19T11:46:40.740Z,6.00
2019-03-19T11:47:44.455Z,6.28
2019-03-19T11:48:48.082Z,5.75
2019-03-19T11:49:51.755Z,6.22
2019-03-19T11:50:55.504Z,10.40
2019-03-19T11:51:59.138Z,5.65
2019-03-19T11:53:02.768Z,6.05
2019-03-19T11:54:06.412Z,6.85
2019-03-19T11:55:12.383Z,6.12
2019-03-19T11:56:16.014Z,9.05
2019-03-19T11:57:19.650Z,5.60
2019-03-19T11:58:23.279Z,6.03
2019-03-19T11:59:26.915Z,8.15
2019-03-19T12:00:45.230Z,9.58
2019-03-19T12:01:48.936Z,8.85
2019-03-19T12:02:55.692Z,7.58
2019-03-19T12:03:59.299Z,8.65
2019-03-19T12:05:05.672Z,7.20
2019-03-19T12:06:09.342Z,8.35
2019-03-19T12:07:12.975Z,9.40
2019-03-19T12:08:16.616Z,6.90
2019-03-19T12:09:23.633Z,5.30
2019-03-19T12:10:31.380Z,5.78
2019-03-19T12:11:35.050Z,6.42
2019-03-19T12:12:41.645Z,6.35
2019-03-19T12:13:45.628Z,6.95
2019-03-19T12:14:49.259Z,9.68
2019-03-19T12:15:52.962Z,8.73
2019-03-19T12:16:56.636Z,7.78
2019-03-19T12:18:00.559Z,8.33
2019-03-19T12:19:04.190Z,6.42
2019-03-19T12:20:12.983Z,7.45
2019-03-19T12:21:16.537Z,6.47
2019-03-19T12:22:20.225Z,5.80
2019-03-19T12:23:23.857Z,5.40
2019-03-19T12:24:27.489Z,6.40
2019-03-19T12:25:31.612Z,5.55
2019-03-19T12:26:35.299Z,4.08
2019-03-19T12:27:38.962Z,7.42
2019-03-19T12:28:42.591Z,6.80
2019-03-19T12:29:46.229Z,5.33
2019-03-19T12:30:49.912Z,7.03
2019-03-19T12:31:53.537Z,6.60
2019-03-19T12:32:57.173Z,6.53
2019-03-19T12:34:00.810Z,7.12
2019-03-19T12:35:06.141Z,6.20
2019-03-19T12:36:09.786Z,6.62
2019-03-19T12:37:13.412Z,5.45
2019-03-19T12:38:17.084Z,5.47
2019-03-19T12:39:20.766Z,5.40
2019-03-19T12:40:35.962Z,7.12
2019-03-19T12:41:30.356Z,6.28
2019-03-19T12:42:33.992Z,5.87
2019-03-19T12:43:37.627Z,5.10
2019-03-19T12:44:41.256Z,6.12
2019-03-19T12:45:45.284Z,5.47
2019-03-19T12:46:48.936Z,9.23
2019-03-19T12:47:54.613Z,5.85
2019-03-19T12:48:58.063Z,9.13
2019-03-19T12:50:01.708Z,5.20
2019-03-19T12:51:05.343Z,9.13
2019-03-19T12:52:08.907Z,7.22
2019-03-19T12:53:24.899Z,6.53
2019-03-19T12:54:29.000Z,6.00
2019-03-19T12:55:32.960Z,5.87
2019-03-19T12:56:36.527Z,6.55
2019-03-19T12:58:04.207Z,8.95
2019-03-19T12:59:19.503Z,6.70
2019-03-19T13:00:34.250Z,7.83
2019-03-19T13:01:32.504Z,7.97
2019-03-19T13:02:36.204Z,5.20
2019-03-19T13:03:39.847Z,7.92
2019-03-19T13:04:43.471Z,7.08
2019-03-19T13:05:47.140Z,10.15
2019-03-19T13:06:50.773Z,6.50
2019-03-19T13:07:54.418Z,10.30
2019-03-19T13:08:58.049Z,9.70
2019-03-19T13:10:01.718Z,8.38
2019-03-19T13:11:05.387Z,7.78
2019-03-19T13:12:09.204Z,11.18
2019-03-19T13:13:12.839Z,7.50
2019-03-19T13:14:16.488Z,7.55
2019-03-19T13:15:20.726Z,8.53
2019-03-19T13:16:24.396Z,9.45
2019-03-19T13:17:28.097Z,5.85
2019-03-19T13:18:31.728Z,6.30
2019-03-19T13:19:35.357Z,9.28
2019-03-19T13:20:38.998Z,10.35
2019-03-19T13:21:42.672Z,7.22
2019-03-19T13:22:46.306Z,8.43
2019-03-19T13:23:49.928Z,6.03
2019-03-19T13:24:53.595Z,10.28
2019-03-19T13:25:57.301Z,8.50
2019-03-19T13:27:01.372Z,5.87
2019-03-19T13:28:05.209Z,10.65
2019-03-19T13:29:08.866Z,7.90
2019-03-19T13:30:15.268Z,10.85
2019-03-19T13:31:18.884Z,11.10
2019-03-19T13:32:22.528Z,8.30
2019-03-19T13:33:26.197Z,10.35
2019-03-19T13:34:29.852Z,8.18
2019-03-19T13:35:33.471Z,11.80
2019-03-19T13:36:37.218Z,10.00
2019-03-19T13:37:40.889Z,11.15
2019-03-19T13:38:44.526Z,13.32
2019-03-19T13:39:48.258Z,11.38
2019-03-19T13:40:52.016Z,10.75
2019-03-19T13:41:55.618Z,11.10
2019-03-19T13:42:59.284Z,13.15
2019-03-19T13:44:03.116Z,12.35
2019-03-19T13:45:09.617Z,12.73
2019-03-19T13:46:13.257Z,13.60
2019-03-19T13:47:16.964Z,15.72
2019-03-19T13:48:20.643Z,13.30
2019-03-19T13:49:24.277Z,13.70
2019-03-19T13:50:27.913Z,12.73
2019-03-19T13:51:31.560Z,17.20
2019-03-19T13:52:35.198Z,18.35
2019-03-19T13:53:38.936Z,14.38
2019-03-19T13:54:42.660Z,14.78
2019-03-19T13:55:46.285Z,16.37
2019-03-19T13:56:49.937Z,15.35
2019-03-19T13:57:53.574Z,15.65
2019-03-19T13:58:57.176Z,17.70
2019-03-19T14:00:00.889Z,20.75
2019-03-19T14:01:04.585Z,15.95
2019-03-19T14:02:08.575Z,15.70
2019-03-19T14:03:12.217Z,16.40
2019-03-19T14:04:15.880Z,14.10
2019-03-19T14:05:19.525Z,15.43
2019-03-19T14:06:23.087Z,17.42
2019-03-19T14:07:27.135Z,14.25
2019-03-19T14:08:30.778Z,16.37
2019-03-19T14:09:34.468Z,15.85